createdAt,value
2023-03-01T16:52:25.980Z,13.70
2023-03-01T16:54:54.323Z,16.50
2023-03-01T16:57:22.640Z,13.50
2023-03-01T16:59:54.829Z,15.10
2023-03-01T17:02:23.592Z,17.00
2023-03-01T17:04:56.509Z,14.90
2023-03-01T17:07:24.845Z,30.10
2023-03-01T17:09:53.180Z,15.20
2023-03-01T17:12:21.533Z,13.50
2023-03-01T17:14:50.881Z,14.90
2023-03-01T17:17:19.361Z,13.80
2023-03-01T17:19:47.714Z,13.10
2023-03-01T17:22:17.726Z,13.40
2023-03-01T17:24:46.505Z,13.30
2023-03-01T17:27:16.255Z,12.60
2023-03-01T17:29:44.580Z,10.70
2023-03-01T17:32:13.798Z,12.20
2023-03-01T17:34:42.944Z,13.00
2023-03-01T17:37:11.291Z,13.20
2023-03-01T17:39:39.663Z,12.10
2023-03-01T17:42:08.174Z,14.20
2023-03-01T17:44:36.656Z,16.80
2023-03-01T17:47:06.764Z,16.70
2023-03-01T17:49:35.178Z,16.00
2023-03-01T17:52:03.695Z,14.80
2023-03-01T17:54:33.665Z,15.20
2023-03-01T17:57:02.298Z,15.30
2023-03-01T17:59:33.683Z,16.50
2023-03-01T18:02:02.178Z,22.10
2023-03-01T18:04:30.745Z,18.30
2023-03-01T18:06:59.619Z,16.60
2023-03-01T18:09:28.584Z,15.30
2023-03-01T18:11:57.138Z,17.30
2023-03-01T18:14:26.197Z,19.00
2023-03-01T18:16:54.664Z,17.30
2023-03-01T18:19:23.080Z,20.20
2023-03-01T18:21:51.340Z,21.10
2023-03-01T18:24:19.770Z,20.60
2023-03-01T18:26:48.080Z,17.80
2023-03-01T18:29:16.351Z,16.50
2023-03-01T18:31:45.111Z,18.30
2023-03-01T18:34:14.047Z,16.20
2023-03-01T18:36:47.878Z,17.80
2023-03-01T18:39:25.074Z,13.10
2023-03-01T18:41:53.432Z,12.30
2023-03-01T18:44:21.902Z,11.00
2023-03-01T18:46:50.416Z,13.60
2023-03-01T18:49:19.552Z,14.30
2023-03-01T18:51:47.936Z,13.60
2023-03-01T18:54:16.530Z,13.90
2023-03-01T18:56:45.929Z,17.70
2023-03-01T18:59:14.340Z,14.60
2023-03-01T19:01:43.544Z,13.20
2023-03-01T19:04:12.301Z,15.50
2023-03-01T19:06:40.798Z,19.20
2023-03-01T19:09:11.574Z,13.90
2023-03-01T19:11:40.808Z,13.60
2023-03-01T19:14:10.414Z,14.70
2023-03-01T19:16:38.918Z,14.40
2023-03-01T19:19:09.911Z,16.10
2023-03-01T19:21:38.314Z,13.90
2023-03-01T19:24:07.746Z,14.10
2023-03-01T19:26:36.300Z,12.40
2023-03-01T19:29:06.507Z,12.90
2023-03-01T19:31:34.920Z,10.00
2023-03-01T19:34:11.386Z,11.20
2023-03-01T19:36:43.143Z,14.20
2023-03-01T19:39:13.928Z,12.00
2023-03-01T19:41:44.046Z,13.90
2023-03-01T19:44:13.498Z,12.90
2023-03-01T19:46:42.391Z,15.00
2023-03-01T19:49:11.211Z,14.50
2023-03-01T19:51:39.795Z,13.80
2023-03-01T19:54:10.009Z,16.50
2023-03-01T19:56:41.233Z,19.50
2023-03-01T19:59:09.584Z,17.20
2023-03-01T20:01:38.924Z,22.90
2023-03-01T20:04:07.295Z,21.60
2023-03-01T20:06:36.750Z,18.30
2023-03-01T20:09:20.421Z,16.90
2023-03-01T20:11:51.489Z,15.50
2023-03-01T20:14:22.475Z,13.40
2023-03-01T20:16:52.496Z,13.70
2023-03-01T20:19:21.493Z,10.90
2023-03-01T20:21:50.728Z,10.20
2023-03-01T20:24:19.116Z,9.40
2023-03-01T20:26:47.563Z,11.00
2023-03-01T20:29:16.000Z,13.80
2023-03-01T20:31:44.400Z,15.50
2023-03-01T20:34:12.970Z,16.40
2023-03-01T20:36:42.964Z,16.30
2023-03-01T20:39:12.087Z,22.70
2023-03-01T20:41:40.950Z,22.10
2023-03-01T20:44:09.721Z,18.20
2023-03-01T20:46:38.780Z,20.10
2023-03-01T20:49:07.695Z,23.90
2023-03-01T20:51:36.104Z,25.50
2023-03-01T20:54:05.261Z,22.90
2023-03-01T20:56:34.513Z,24.50
2023-03-01T20:59:09.505Z,20.60
2023-03-01T21:01:39.732Z,23.00
2023-03-01T21:04:09.373Z,22.90
2023-03-01T21:06:39.132Z,18.00
2023-03-01T21:09:07.590Z,17.10
2023-03-01T21:11:36.338Z,19.50
2023-03-01T21:14:07.992Z,12.20
2023-03-01T21:16:36.679Z,15.20
2023-03-01T21:19:05.463Z,13.00
2023-03-01T21:21:33.865Z,13.90
2023-03-01T21:24:02.271Z,13.20
2023-03-01T21:26:31.282Z,14.00
2023-03-01T21:29:01.725Z,19.40
2023-03-01T21:31:34.208Z,19.40
2023-03-01T21:34:05.780Z,20.10
2023-03-01T21:36:35.963Z,20.60
2023-03-01T21:39:06.604Z,21.50
2023-03-01T21:41:37.816Z,18.70
2023-03-01T21:44:07.693Z,21.30
2023-03-01T21:46:39.329Z,22.20
2023-03-01T21:49:10.403Z,22.00
2023-03-01T21:51:38.870Z,21.10
2023-03-01T21:54:07.403Z,21.00
2023-03-01T21:56:43.574Z,19.50
2023-03-01T21:59:20.245Z,19.40
2023-03-01T22:01:50.780Z,16.60
2023-03-01T22:04:20.674Z,14.90
2023-03-01T22:06:49.954Z,11.80
2023-03-01T22:09:23.476Z,12.00
2023-03-01T22:12:02.627Z,11.30
2023-03-01T22:14:32.738Z,7.50
2023-03-01T22:17:01.169Z,6.90
2023-03-01T22:19:30.446Z,6.30
2023-03-01T22:21:58.764Z,8.90
2023-03-01T22:24:27.118Z,8.10
2023-03-01T22:26:55.683Z,7.60
2023-03-01T22:29:30.858Z,6.90
2023-03-01T22:31:59.586Z,5.60
2023-03-01T22:34:28.118Z,6.40
2023-03-01T22:36:57.180Z,9.20
2023-03-01T22:39:25.626Z,7.40
2023-03-01T22:41:54.786Z,10.60
2023-03-01T22:44:24.095Z,13.50
2023-03-01T22:46:52.491Z,9.10
2023-03-01T22:49:21.587Z,7.30
2023-03-01T22:51:50.626Z,7.30
2023-03-01T22:54:20.694Z,6.80
2023-03-01T22:56:49.750Z,7.30
2023-03-01T22:59:20.959Z,9.10
2023-03-01T23:01:49.753Z,8.80
2023-03-01T23:04:19.669Z,6.50
2023-03-01T23:06:50.836Z,7.90
2023-03-01T23:09:22.221Z,9.40
2023-03-01T23:11:51.806Z,20.40
2023-03-01T23:14:21.395Z,24.40
2023-03-01T23:16:50.931Z,27.00
2023-03-01T23:19:19.297Z,20.60
2023-03-01T23:21:50.557Z,20.80
2023-03-01T23:24:21.617Z,21.50
2023-03-01T23:29:24.287Z,19.00
2023-03-01T23:31:57.858Z,13.40
2023-03-01T23:34:27.574Z,17.10
2023-03-01T23:36:56.093Z,17.30
2023-03-01T23:39:24.534Z,14.40
2023-03-01T23:41:52.888Z,20.60
2023-03-01T23:44:22.016Z,17.70
2023-03-01T23:46:51.274Z,21.00
2023-03-01T23:49:22.535Z,17.30
2023-03-01T23:51:51.398Z,16.00
2023-03-01T23:54:23.290Z,13.60
2023-03-01T23:56:52.054Z,12.10
2023-03-01T23:59:24.614Z,10.90
